Time;durP1;ratioP1;P1;durP2;ratioP2;P2;SDS_P1;SDS_P2;PMS_P1;PMS_P2;Temp;Humidity;BMP_temperature;BMP_pressure;BME280_temperature;BME280_humidity;BME280_pressure;Samples;Min_cycle;Max_cycle;Signal;HPM_P1;HPM_P2
2023/09/14 00:02:11;;;;;;;2.85;2.00;;;23.80;60.90;24.10;101406.00;;;;5008470;28;20242;-53
2023/09/14 00:04:36;;;;;;;2.23;2.03;;;23.80;60.80;24.00;101384.00;;;;5008102;28;20190;-52
2023/09/14 00:07:02;;;;;;;3.58;2.20;;;23.80;60.90;24.00;101385.00;;;;5009234;28;20788;-53
2023/09/14 00:09:28;;;;;;;2.40;2.10;;;23.70;60.60;24.00;101388.00;;;;5008901;28;20207;-53
2023/09/14 00:11:54;;;;;;;2.20;2.03;;;23.80;60.80;24.00;101386.00;;;;5006933;28;20180;-54
2023/09/14 00:14:19;;;;;;;2.95;2.30;;;23.70;60.70;24.00;101394.00;;;;5008052;28;20176;-53
2023/09/14 00:16:46;;;;;;;2.63;2.20;;;23.70;60.60;24.00;101389.00;;;;5012639;28;20490;-52
2023/09/14 00:19:12;;;;;;;2.47;2.28;;;23.70;60.50;24.00;101389.00;;;;5011650;28;20527;-53
2023/09/14 00:21:39;;;;;;;3.33;2.15;;;23.70;60.70;24.00;101389.00;;;;5009139;28;20179;-54
2023/09/14 00:24:05;;;;;;;2.90;2.20;;;23.70;60.80;24.00;101386.00;;;;5009301;28;20215;-54
2023/09/14 00:26:31;;;;;;;2.35;2.10;;;23.70;60.60;24.00;101394.00;;;;5009661;28;20261;-53
2023/09/14 00:28:57;;;;;;;3.00;2.23;;;23.60;60.50;23.90;101392.00;;;;5009600;28;20191;-53
2023/09/14 00:31:22;;;;;;;2.40;2.20;;;23.70;60.60;23.90;101393.00;;;;5012804;28;20180;-53
2023/09/14 00:33:48;;;;;;;2.13;1.92;;;23.70;60.60;23.90;101389.00;;;;5012787;28;20172;-54
2023/09/14 00:36:14;;;;;;;2.30;2.10;;;23.70;60.50;23.90;101386.00;;;;5009287;28;20210;-54
2023/09/14 00:38:40;;;;;;;2.38;1.90;;;23.70;60.50;23.90;101396.00;;;;5007563;28;20587;-54
2023/09/14 00:41:06;;;;;;;2.45;2.10;;;23.60;60.20;23.80;101393.00;;;;5009072;28;20191;-53
2023/09/14 00:43:32;;;;;;;2.35;2.00;;;23.50;60.30;23.80;101388.00;;;;5008841;28;20198;-54
2023/09/14 00:45:57;;;;;;;2.25;2.05;;;23.60;60.10;23.80;101384.00;;;;5008835;28;20330;-53
2023/09/14 00:48:23;;;;;;;2.30;2.10;;;23.50;60.00;23.80;101388.00;;;;5008831;28;20278;-53
2023/09/14 00:50:49;;;;;;;3.22;2.17;;;23.60;60.30;23.80;101380.00;;;;5007505;28;20177;-54
2023/09/14 00:53:15;;;;;;;3.37;2.20;;;23.50;60.00;23.80;101388.00;;;;5008753;28;20191;-54
2023/09/14 00:55:42;;;;;;;2.63;2.20;;;23.50;60.00;23.70;101378.00;;;;5007661;28;20632;-53
2023/09/14 00:58:08;;;;;;;2.20;2.00;;;23.50;60.00;23.70;101390.00;;;;4991961;28;20176;-54
2023/09/14 01:00:34;;;;;;;3.13;2.20;;;23.50;60.20;23.70;101390.00;;;;5007136;28;20205;-54
2023/09/14 01:02:59;;;;;;;3.85;2.20;;;23.50;60.30;23.70;101387.00;;;;5007462;28;20801;-54
2023/09/14 01:05:30;;;;;;;2.90;2.40;;;23.50;60.20;23.70;101387.00;;;;5008459;28;20581;-54
2023/09/14 01:07:56;;;;;;;3.13;2.20;;;23.50;59.80;23.70;101389.00;;;;5008590;28;20175;-53
2023/09/14 01:10:23;;;;;;;2.30;2.10;;;23.50;60.10;23.70;101395.00;;;;5011566;28;20187;-53
2023/09/14 01:12:48;;;;;;;3.97;2.13;;;23.50;60.20;23.70;101389.00;;;;5009833;28;20187;-54
2023/09/14 01:15:19;;;;;;;2.67;2.30;;;23.50;60.30;23.70;101386.00;;;;5008551;28;20589;-53
2023/09/14 01:17:53;;;;;;;2.57;2.30;;;23.40;60.30;23.70;101392.00;;;;5008307;28;20195;-53
2023/09/14 01:20:55;;;;;;;2.70;2.17;;;23.40;60.10;23.60;101391.00;;;;5008257;28;20246;-53
2023/09/14 01:23:37;;;;;;;2.90;2.30;;;23.30;59.80;23.60;101389.00;;;;5008278;28;20266;-52
2023/09/14 01:26:03;;;;;;;3.65;2.42;;;23.40;60.00;23.30;101399.00;;;;5008402;28;20290;-53
2023/09/14 01:28:28;;;;;;;3.08;2.10;;;23.40;60.00;23.60;101398.00;;;;4990123;28;20305;-53
2023/09/14 01:30:54;;;;;;;2.50;2.30;;;23.30;59.90;23.50;101394.00;;;;5008479;28;20186;-53
2023/09/14 01:33:21;;;;;;;2.27;2.07;;;23.40;60.00;23.50;101410.00;;;;5008303;28;20667;-54
2023/09/14 01:35:58;;;;;;;3.20;2.27;;;23.30;59.90;23.50;101403.00;;;;5006951;28;20187;-53
2023/09/14 01:38:24;;;;;;;2.27;2.07;;;23.30;59.80;23.50;101410.00;;;;4991519;28;20234;-54
2023/09/14 01:40:50;;;;;;;3.77;2.43;;;23.30;59.70;23.50;101413.00;;;;5006899;28;20583;-53
2023/09/14 01:43:16;;;;;;;3.50;2.33;;;23.30;59.60;23.50;101409.00;;;;4974594;28;20179;-53
2023/09/14 01:45:41;;;;;;;2.43;2.23;;;23.30;59.80;23.50;101410.00;;;;5008349;28;20869;-54
2023/09/14 01:48:07;;;;;;;3.00;2.40;;;23.30;59.70;23.50;101405.00;;;;5006824;28;20179;-53
2023/09/14 01:50:33;;;;;;;2.50;2.00;;;23.30;59.80;23.50;101405.00;;;;5007993;28;20171;-53
2023/09/14 01:52:59;;;;;;;2.20;2.00;;;23.20;59.60;23.50;101394.00;;;;5008190;28;20184;-52
2023/09/14 01:55:24;;;;;;;2.47;2.10;;;23.30;59.60;23.40;101400.00;;;;5006665;28;20186;-53
2023/09/14 01:57:50;;;;;;;2.30;2.10;;;23.20;59.60;23.40;101404.00;;;;5006142;28;20914;-55
2023/09/14 02:00:16;;;;;;;2.60;1.90;;;23.20;59.70;23.40;101404.00;;;;5007870;28;20599;-53
2023/09/14 02:02:42;;;;;;;2.17;1.97;;;23.20;59.50;23.40;101403.00;;;;5007776;28;20320;-53
2023/09/14 02:05:08;;;;;;;2.20;1.97;;;23.20;59.50;23.40;101406.00;;;;5007916;28;20195;-53
2023/09/14 02:07:34;;;;;;;2.87;2.00;;;23.20;59.40;23.40;101400.00;;;;5007756;28;20180;-54
2023/09/14 02:09:59;;;;;;;2.43;2.23;;;23.20;59.50;23.40;101394.00;;;;5007690;28;20830;-54
2023/09/14 02:12:25;;;;;;;2.63;2.07;;;23.20;59.60;23.30;101395.00;;;;5007676;28;20215;-53
2023/09/14 02:14:51;;;;;;;2.53;2.33;;;23.20;59.60;23.30;101388.00;;;;5008095;28;20314;-53
2023/09/14 02:17:17;;;;;;;3.13;2.23;;;23.10;59.50;23.30;101388.00;;;;5013790;28;20183;-53
2023/09/14 02:19:43;;;;;;;2.27;1.93;;;23.20;59.50;23.30;101398.00;;;;5008465;28;20357;-53
2023/09/14 02:22:09;;;;;;;2.30;2.00;;;23.10;59.00;23.30;101398.00;;;;5008123;28;20219;-53
2023/09/14 02:24:35;;;;;;;2.40;1.90;;;23.10;58.90;23.30;101399.00;;;;5008031;28;20187;-54
2023/09/14 02:27:00;;;;;;;2.40;2.10;;;23.10;59.00;23.20;101408.00;;;;5008345;28;20179;-53
2023/09/14 02:29:26;;;;;;;2.20;2.00;;;23.10;59.20;23.20;101406.00;;;;5011657;28;20701;-53
2023/09/14 02:31:52;;;;;;;2.83;2.00;;;23.00;59.30;23.20;101393.00;;;;5017637;28;20199;-53
2023/09/14 02:34:18;;;;;;;2.83;2.00;;;23.00;59.20;23.20;101326.00;;;;5009498;28;20732;-53
2023/09/14 02:36:43;;;;;;;2.30;2.03;;;23.00;59.30;23.20;101406.00;;;;5010962;28;20241;-53
2023/09/14 02:39:09;;;;;;;2.00;1.80;;;23.00;59.20;23.20;101413.00;;;;5009899;28;20290;-54
2023/09/14 02:41:35;;;;;;;2.30;2.10;;;23.00;58.90;23.10;101402.00;;;;5011007;28;20187;-53
2023/09/14 02:44:00;;;;;;;2.50;2.10;;;23.00;59.20;23.10;101414.00;;;;5011352;28;20617;-53
2023/09/14 02:46:26;;;;;;;2.17;1.97;;;22.90;59.10;23.10;101415.00;;;;5010875;28;20244;-53
2023/09/14 02:48:52;;;;;;;2.07;1.87;;;22.90;59.10;23.10;101419.00;;;;5010867;28;20279;-55
2023/09/14 02:51:18;;;;;;;2.47;1.93;;;22.90;59.10;23.10;101415.00;;;;5010743;28;20665;-53
2023/09/14 02:53:43;;;;;;;3.27;2.10;;;23.00;58.90;23.10;101417.00;;;;5010798;28;20251;-53
2023/09/14 02:56:09;;;;;;;2.00;1.80;;;22.90;58.90;23.00;101413.00;;;;5010739;28;20195;-54
2023/09/14 02:58:35;;;;;;;2.20;2.00;;;22.90;59.00;23.00;101411.00;;;;5009011;28;20215;-54
2023/09/14 03:01:09;;;;;;;3.90;1.90;;;22.90;59.20;23.00;101403.00;;;;5009737;28;20179;-53
2023/09/14 03:03:35;;;;;;;4.07;2.10;;;22.80;59.00;23.00;101403.00;;;;5011750;28;20202;-53
2023/09/14 03:06:01;;;;;;;2.20;1.90;;;22.80;59.00;23.00;101409.00;;;;5011491;28;20204;-53
2023/09/14 03:08:27;;;;;;;3.37;2.07;;;22.80;59.40;23.00;101413.00;;;;5011187;28;20704;-53
2023/09/14 03:10:53;;;;;;;3.10;1.90;;;22.80;59.20;23.00;101407.00;;;;5011693;28;20245;-53
2023/09/14 03:13:18;;;;;;;3.53;2.13;;;22.80;59.00;23.00;101405.00;;;;5011522;28;20175;-53
2023/09/14 03:15:44;;;;;;;3.50;2.20;;;22.90;59.10;23.00;101410.00;;;;5011748;28;20553;-52
2023/09/14 03:18:10;;;;;;;3.43;2.13;;;22.80;58.80;23.00;101407.00;;;;5011058;28;20215;-53
2023/09/14 03:20:38;;;;;;;6.27;2.30;;;22.80;58.90;23.00;101410.00;;;;5011586;28;20203;-53
2023/09/14 03:23:04;;;;;;;7.30;6.57;;;22.80;58.60;23.00;101415.00;;;;5011352;28;20195;-53
2023/09/14 03:25:30;;;;;;;3.53;2.53;;;22.70;58.80;23.00;101395.00;;;;5010595;28;20246;-53
2023/09/14 03:27:56;;;;;;;2.77;2.20;;;22.80;58.70;22.90;101407.00;;;;5010209;28;20183;-53
2023/09/14 03:30:22;;;;;;;2.53;2.30;;;22.80;58.80;22.90;101410.00;;;;5010367;28;20200;-53
2023/09/14 03:32:48;;;;;;;2.20;2.10;;;22.80;59.00;22.90;101402.00;;;;5011466;28;20179;-53
2023/09/14 03:35:14;;;;;;;3.07;2.10;;;22.70;58.90;22.90;101405.00;;;;5011654;28;20221;-53
2023/09/14 03:37:40;;;;;;;3.30;2.00;;;22.70;59.10;22.90;101396.00;;;;5010866;28;20690;-54
2023/09/14 03:40:08;;;;;;;2.13;1.90;;;22.70;59.10;22.90;101401.00;;;;5010972;28;20286;-53
2023/09/14 03:42:34;;;;;;;2.37;2.17;;;22.70;58.90;22.90;101402.00;;;;5010957;28;20275;-53
2023/09/14 03:45:00;;;;;;;3.30;1.93;;;22.60;59.10;22.80;101409.00;;;;5011013;28;20196;-53
2023/09/14 03:47:25;;;;;;;2.90;2.03;;;22.60;58.80;22.80;101407.00;;;;5010628;28;20255;-53
2023/09/14 03:49:51;;;;;;;2.27;1.90;;;22.60;59.10;22.80;101410.00;;;;5009704;28;20226;-53
2023/09/14 03:52:17;;;;;;;2.90;2.57;;;22.60;59.20;22.70;101393.00;;;;5010712;28;20194;-52
2023/09/14 03:54:43;;;;;;;2.93;2.67;;;22.50;59.10;22.70;101397.00;;;;5009624;28;20188;-53
2023/09/14 03:57:14;;;;;;;5.90;2.60;;;22.50;59.30;22.70;101408.00;;;;5009874;28;20182;-53
2023/09/14 03:59:44;;;;;;;7.37;2.93;;;22.50;59.20;22.60;101395.00;;;;5003027;28;20211;-52
2023/09/14 04:02:10;;;;;;;6.27;3.10;;;22.40;59.20;22.60;101399.00;;;;5008931;28;20222;-52
2023/09/14 04:04:40;;;;;;;4.17;3.40;;;22.40;59.20;22.60;101406.00;;;;5010077;28;20254;-52
2023/09/14 04:07:05;;;;;;;4.73;3.20;;;22.40;59.40;22.60;101397.00;;;;5010212;28;20182;-53
2023/09/14 04:09:31;;;;;;;5.87;3.40;;;22.40;59.50;22.60;101402.00;;;;5009571;28;20204;-53
2023/09/14 04:11:57;;;;;;;6.30;3.50;;;22.40;59.80;22.60;101398.00;;;;5010307;28;20186;-53
2023/09/14 04:14:23;;;;;;;7.23;3.07;;;22.40;59.90;22.60;101394.00;;;;5012502;28;20179;-53
2023/09/14 04:16:48;;;;;;;5.30;3.20;;;22.40;59.90;22.50;101398.00;;;;5016453;28;20585;-46
2023/09/14 04:19:14;;;;;;;6.07;3.10;;;22.40;60.10;22.50;101393.00;;;;5009802;28;20217;-48
2023/09/14 04:21:44;;;;;;;4.37;3.30;;;22.30;59.90;22.50;101388.00;;;;5010528;28;20207;-46
2023/09/14 04:24:10;;;;;;;3.80;3.27;;;22.30;60.10;22.50;101403.00;;;;5010768;28;20191;-47
2023/09/14 04:26:36;;;;;;;5.33;3.20;;;22.30;60.50;22.50;101398.00;;;;5010451;28;20200;-47
2023/09/14 04:29:02;;;;;;;3.43;3.03;;;22.40;60.70;22.50;101394.00;;;;5016067;28;20222;-47
2023/09/14 04:31:27;;;;;;;11.93;4.60;;;22.40;60.60;22.50;101390.00;;;;5015651;28;20203;-47
2023/09/14 04:33:53;;;;;;;18.43;4.53;;;22.30;60.60;22.50;101400.00;;;;5008372;28;20177;-47
2023/09/14 04:36:19;;;;;;;14.63;4.10;;;22.40;60.70;22.50;101401.00;;;;5009902;28;20233;-47
2023/09/14 04:38:45;;;;;;;10.00;3.60;;;22.30;60.50;22.50;101390.00;;;;5009722;28;20203;-47
2023/09/14 04:41:10;;;;;;;12.50;3.73;;;22.30;60.50;22.50;101402.00;;;;5008737;28;20214;-47
2023/09/14 04:43:36;;;;;;;10.43;3.20;;;22.20;59.80;22.50;101402.00;;;;5009515;28;20198;-44
2023/09/14 04:46:04;;;;;;;5.53;3.13;;;22.10;60.00;22.50;101399.00;;;;5009586;28;20701;-45
2023/09/14 04:48:30;;;;;;;7.03;3.13;;;22.20;60.60;22.50;101400.00;;;;5008990;28;20294;-48
2023/09/14 04:50:57;;;;;;;7.47;3.40;;;22.20;60.10;22.50;101397.00;;;;5009714;28;20688;-46
2023/09/14 04:53:24;;;;;;;7.83;3.50;;;22.20;59.90;22.50;101403.00;;;;5011710;28;20210;-45
2023/09/14 04:55:50;;;;;;;15.00;12.50;;;22.10;59.50;22.50;101405.00;;;;5011464;28;20183;-45
2023/09/14 04:58:16;;;;;;;10.30;3.93;;;22.10;59.80;22.50;101412.00;;;;5009046;28;20278;-44
2023/09/14 05:00:42;;;;;;;7.07;5.97;;;22.20;60.10;22.50;101405.00;;;;5008760;28;20219;-45
2023/09/14 05:03:07;;;;;;;5.33;3.53;;;22.10;60.10;22.40;101413.00;;;;5009284;28;20184;-45
2023/09/14 05:05:33;;;;;;;6.93;3.40;;;22.10;60.10;22.40;101404.00;;;;5008705;28;20211;-46
2023/09/14 05:07:59;;;;;;;6.17;3.43;;;22.10;59.80;22.40;101415.00;;;;5007833;28;20210;-46
2023/09/14 05:10:26;;;;;;;7.33;3.60;;;22.10;60.00;22.40;101403.00;;;;5009182;28;20198;-46
2023/09/14 05:12:52;;;;;;;5.97;3.47;;;22.10;59.60;22.40;101412.00;;;;5009422;28;20646;-45
2023/09/14 05:15:17;;;;;;;4.30;3.40;;;22.00;59.80;22.40;101409.00;;;;5008991;28;20186;-46
2023/09/14 05:17:44;;;;;;;4.40;3.40;;;21.90;59.90;22.40;101403.00;;;;5007328;28;20187;-46
2023/09/14 05:20:11;;;;;;;7.93;3.20;;;22.00;60.30;22.40;101405.00;;;;5009231;28;20694;-46
2023/09/14 05:22:38;;;;;;;3.53;3.10;;;22.00;60.40;22.40;101407.00;;;;5008036;28;20188;-46
2023/09/14 05:25:05;;;;;;;4.07;3.20;;;22.00;60.10;22.40;101402.00;;;;5009101;28;20211;-46
2023/09/14 05:27:38;;;;;;;3.57;3.20;;;22.10;59.90;22.30;101410.00;;;;5007683;28;20187;-45
2023/09/14 05:30:05;;;;;;;4.60;3.33;;;22.10;59.90;22.30;101411.00;;;;5008991;28;20286;-45
2023/09/14 05:32:31;;;;;;;3.57;3.27;;;22.10;59.90;22.30;101411.00;;;;5009075;28;20188;-45
2023/09/14 05:34:58;;;;;;;5.40;3.00;;;21.90;59.60;22.30;101419.00;;;;5008801;28;20234;-44
2023/09/14 05:37:23;;;;;;;3.70;3.10;;;22.00;59.90;22.30;101420.00;;;;4991380;28;20278;-46
2023/09/14 05:39:49;;;;;;;4.27;3.10;;;22.10;59.90;22.30;101408.00;;;;5009225;28;20282;-46
2023/09/14 05:42:16;;;;;;;3.33;2.80;;;22.00;60.00;22.30;101412.00;;;;5006456;28;20271;-45
2023/09/14 05:44:41;;;;;;;4.97;3.00;;;21.80;59.70;22.30;101424.00;;;;5007302;28;20215;-45
2023/09/14 05:47:07;;;;;;;3.40;3.10;;;21.70;60.30;22.20;101424.00;;;;5009276;28;20615;-46
2023/09/14 05:49:33;;;;;;;2.97;2.70;;;21.60;60.50;22.20;101436.00;;;;5008855;28;20249;-45
2023/09/14 05:51:59;;;;;;;3.60;2.97;;;21.30;61.60;22.20;101434.00;;;;5007789;28;20704;-45
2023/09/14 05:54:24;;;;;;;2.90;2.30;;;21.50;61.80;22.20;101423.00;;;;5008360;28;20179;-46
2023/09/14 05:56:50;;;;;;;2.50;2.30;;;21.70;61.50;22.10;101433.00;;;;5007325;28;20183;-46
2023/09/14 05:59:16;;;;;;;2.70;2.50;;;21.80;61.10;22.10;101429.00;;;;5008600;28;20212;-46
2023/09/14 06:01:42;;;;;;;2.40;2.20;;;21.80;60.70;22.10;101413.00;;;;5008719;28;20191;-45
2023/09/14 06:04:08;;;;;;;2.70;2.50;;;21.90;60.60;22.10;101430.00;;;;5007467;28;20188;-46
2023/09/14 06:06:34;;;;;;;4.97;3.03;;;21.90;60.70;22.10;101440.00;;;;5008548;28;20225;-46
2023/09/14 06:08:59;;;;;;;4.40;2.77;;;21.80;60.70;22.10;101444.00;;;;5008360;28;20231;-46
2023/09/14 06:11:28;;;;;;;4.27;3.60;;;21.90;60.80;22.10;101436.00;;;;5012582;28;20548;-46
2023/09/14 06:13:54;;;;;;;3.30;3.10;;;21.90;60.50;22.10;101441.00;;;;4999900;28;20378;-46
2023/09/14 06:16:20;;;;;;;3.80;3.50;;;21.90;60.50;22.10;101447.00;;;;5014263;28;20180;-46
2023/09/14 06:18:46;;;;;;;3.87;3.33;;;21.90;60.50;22.10;101460.00;;;;5012625;28;20290;-46
2023/09/14 06:21:12;;;;;;;3.37;2.60;;;21.90;60.90;22.10;101450.00;;;;5013116;28;20187;-45
2023/09/14 06:23:40;;;;;;;4.60;3.80;;;21.90;60.90;22.10;101454.00;;;;5012905;28;20963;-46
2023/09/14 06:26:06;;;;;;;5.33;4.13;;;21.80;60.60;22.10;101455.00;;;;5014198;28;20203;-46
2023/09/14 06:28:31;;;;;;;4.77;3.90;;;21.60;61.50;22.10;101459.00;;;;5021310;28;20747;-46
2023/09/14 06:30:58;;;;;;;5.13;4.17;;;21.60;62.00;22.10;101459.00;;;;5012795;28;20179;-47
2023/09/14 06:33:24;;;;;;;5.93;4.27;;;21.60;61.90;22.10;101454.00;;;;5012306;28;20179;-46
2023/09/14 06:35:49;;;;;;;4.57;4.03;;;21.30;62.20;22.00;101466.00;;;;5010692;28;20194;-46
2023/09/14 06:38:15;;;;;;;4.53;3.70;;;21.20;62.50;22.00;101467.00;;;;5011824;28;20179;-46
2023/09/14 06:40:41;;;;;;;5.40;4.40;;;21.20;63.10;22.00;101469.00;;;;5011881;28;20626;-45
2023/09/14 06:43:07;;;;;;;5.20;4.00;;;21.20;62.70;21.90;101473.00;;;;5010778;28;20195;-45
2023/09/14 06:45:33;;;;;;;5.80;3.83;;;21.30;62.80;21.90;101470.00;;;;5010189;28;20235;-45
2023/09/14 06:47:59;;;;;;;4.27;3.80;;;21.20;63.30;21.90;101476.00;;;;5011687;28;20293;-46
2023/09/14 06:50:25;;;;;;;4.10;3.70;;;21.10;63.30;21.90;101477.00;;;;5011667;28;20204;-45
2023/09/14 06:52:51;;;;;;;3.70;3.40;;;21.20;63.50;21.90;101480.00;;;;5011790;28;20701;-46
2023/09/14 06:55:17;;;;;;;4.63;3.57;;;21.20;63.20;21.90;101472.00;;;;5011593;28;20179;-46
2023/09/14 06:57:42;;;;;;;4.50;4.10;;;21.20;63.30;21.90;101487.00;;;;5011412;28;20801;-45
2023/09/14 07:00:15;;;;;;;3.70;3.40;;;21.20;63.10;21.90;101490.00;;;;5011929;28;20615;-46
2023/09/14 07:02:42;;;;;;;6.03;3.07;;;21.20;63.50;21.90;101488.00;;;;5010503;28;20195;-50
2023/09/14 07:05:10;;;;;;;5.83;3.90;;;21.40;62.80;21.90;101488.00;;;;5010727;28;20264;-45
2023/09/14 07:07:39;;;;;;;7.00;4.17;;;21.40;62.70;21.90;101497.00;;;;5009832;28;20180;-45
2023/09/14 07:10:06;;;;;;;5.60;4.27;;;21.30;62.70;21.90;101491.00;;;;5008493;28;20686;-45
2023/09/14 07:12:32;;;;;;;5.30;3.40;;;21.20;63.10;21.80;101480.00;;;;5010415;28;20590;-46
2023/09/14 07:14:58;;;;;;;5.17;3.83;;;21.30;63.20;21.80;101481.00;;;;5007627;28;20201;-46
2023/09/14 07:17:24;;;;;;;4.57;3.10;;;21.30;62.90;21.90;101482.00;;;;5010417;28;20233;-46
2023/09/14 07:19:50;;;;;;;3.27;2.97;;;21.40;63.10;21.80;101482.00;;;;5010420;28;20235;-46
2023/09/14 07:22:17;;;;;;;4.47;3.60;;;21.40;62.70;21.80;101491.00;;;;5011442;28;20637;-46
2023/09/14 07:24:43;;;;;;;5.07;3.33;;;21.40;62.70;21.80;101491.00;;;;5010437;28;20237;-45
2023/09/14 07:27:09;;;;;;;4.33;3.60;;;21.50;62.90;21.80;101486.00;;;;5010274;28;20180;-45
2023/09/14 07:29:35;;;;;;;5.90;3.90;;;21.30;63.10;21.80;101489.00;;;;5010137;28;20615;-45
2023/09/14 07:32:01;;;;;;;5.00;3.70;;;20.90;63.90;21.80;101501.00;;;;5009700;28;20674;-45
2023/09/14 07:34:27;;;;;;;4.73;3.70;;;20.90;64.60;21.80;101499.00;;;;5008632;28;20242;-45
2023/09/14 07:36:53;;;;;;;3.80;3.40;;;21.10;64.50;21.80;101501.00;;;;5009001;28;20187;-45
2023/09/14 07:39:18;;;;;;;5.40;3.70;;;21.00;64.20;21.80;101502.00;;;;5010164;28;20208;-49
2023/09/14 07:41:44;;;;;;;6.90;3.60;;;21.00;64.30;21.80;101491.00;;;;5012478;28;20233;-46
2023/09/14 07:44:10;;;;;;;6.57;3.67;;;21.10;64.70;21.80;101502.00;;;;5010064;28;20600;-46
2023/09/14 07:46:37;;;;;;;7.43;3.83;;;21.00;64.50;21.70;101500.00;;;;4992171;28;20215;-46
2023/09/14 07:49:02;;;;;;;13.30;3.73;;;21.10;64.70;21.70;101494.00;;;;5009467;28;20203;-47
2023/09/14 07:51:28;;;;;;;9.50;3.70;;;21.00;65.80;21.60;101497.00;;;;5010256;28;20186;-47
2023/09/14 07:53:55;;;;;;;4.60;3.43;;;21.10;65.30;21.70;101487.00;;;;5010458;28;20258;-46
2023/09/14 07:56:22;;;;;;;7.00;3.67;;;21.10;65.20;21.70;101498.00;;;;5010002;28;20195;-46
2023/09/14 07:58:48;;;;;;;6.50;3.53;;;21.10;65.20;21.70;101503.00;;;;5010295;28;20286;-46
2023/09/14 08:01:13;;;;;;;5.67;3.40;;;21.10;65.20;21.70;101519.00;;;;5010450;28;20279;-46
2023/09/14 08:03:39;;;;;;;7.23;4.33;;;20.90;66.30;21.70;101510.00;;;;5010513;28;20259;-45
2023/09/14 08:06:05;;;;;;;4.90;3.73;;;21.00;65.30;21.70;101506.00;;;;5009667;28;20306;-47
2023/09/14 08:08:33;;;;;;;6.20;3.90;;;20.90;65.80;21.70;101511.00;;;;5008936;28;20199;-46
2023/09/14 08:11:00;;;;;;;5.40;4.33;;;20.90;65.50;21.60;101511.00;;;;5015482;28;20180;-49
2023/09/14 08:13:26;;;;;;;6.97;4.00;;;20.40;66.60;21.50;101504.00;;;;5023323;28;20168;-46
2023/09/14 08:15:51;;;;;;;6.40;3.80;;;20.50;67.50;21.50;101503.00;;;;5010811;28;20187;-45
2023/09/14 08:18:18;;;;;;;8.03;3.40;;;20.60;67.40;21.50;101497.00;;;;5008099;28;20198;-45
2023/09/14 08:20:44;;;;;;;9.27;3.80;;;20.70;66.00;21.50;101508.00;;;;5009598;28;20726;-46
2023/09/14 08:23:12;;;;;;;10.00;4.17;;;20.80;66.80;21.50;101494.00;;;;5009866;28;20282;-46
2023/09/14 08:25:43;;;;;;;5.63;3.67;;;20.80;66.90;21.60;101484.00;;;;5014906;28;20223;-46
2023/09/14 08:28:15;;;;;;;5.03;3.03;;;20.90;67.10;21.60;101494.00;;;;5018330;28;20215;-46
2023/09/14 08:30:42;;;;;;;5.83;3.83;;;20.90;66.20;21.60;101503.00;;;;5009794;28;20181;-45
2023/09/14 08:33:07;;;;;;;6.20;3.40;;;20.80;66.80;21.60;101502.00;;;;5009286;28;20180;-46
2023/09/14 08:35:34;;;;;;;5.83;3.87;;;20.80;67.10;21.60;101513.00;;;;5013813;28;20266;-46
2023/09/14 08:38:02;;;;;;;6.50;4.03;;;20.50;67.70;21.50;101509.00;;;;5014371;28;20190;-46
2023/09/14 08:40:29;;;;;;;4.90;3.60;;;20.60;67.40;21.50;101518.00;;;;5013065;28;20203;-46
2023/09/14 08:42:55;;;;;;;5.27;4.07;;;20.60;67.90;21.50;101479.00;;;;5009903;28;20237;-45
2023/09/14 08:45:25;;;;;;;4.77;3.60;;;20.30;68.40;21.40;101524.00;;;;5010366;28;20199;-46
2023/09/14 08:47:52;;;;;;;5.83;3.50;;;20.50;68.40;21.50;101524.00;;;;5009609;28;20195;-45
2023/09/14 08:50:18;;;;;;;5.67;3.60;;;20.50;68.30;21.50;101525.00;;;;5009970;28;20337;-45
2023/09/14 08:52:45;;;;;;;4.67;3.60;;;20.60;68.00;21.50;101524.00;;;;5009847;28;20174;-46
2023/09/14 08:55:11;;;;;;;4.10;3.70;;;20.70;68.10;21.50;101529.00;;;;5010065;28;20184;-46
2023/09/14 08:57:40;;;;;;;4.30;3.90;;;20.50;68.50;21.50;101529.00;;;;5009699;28;20191;-46
2023/09/14 09:00:14;;;;;;;5.17;4.00;;;20.50;68.50;21.50;101528.00;;;;5008680;28;20214;-45
2023/09/14 09:02:42;;;;;;;4.60;3.53;;;20.30;68.50;21.40;101516.00;;;;5009944;28;20182;-46
2023/09/14 09:05:07;;;;;;;3.93;3.23;;;20.50;68.70;21.40;101505.00;;;;5009791;28;20206;-45
2023/09/14 09:07:33;;;;;;;4.53;3.00;;;20.60;67.40;21.40;101503.00;;;;5009798;28;20183;-46
2023/09/14 09:09:59;;;;;;;3.60;2.97;;;20.70;67.70;21.50;101506.00;;;;4992555;28;20192;-46
2023/09/14 09:12:25;;;;;;;3.63;3.20;;;20.80;68.00;21.50;101504.00;;;;5008956;28;20187;-46
2023/09/14 09:14:50;;;;;;;5.03;4.23;;;20.70;67.60;21.40;101504.00;;;;5009696;28;20202;-46
2023/09/14 09:17:16;;;;;;;4.77;4.27;;;20.30;68.50;21.40;101508.00;;;;5008502;28;20186;-46
2023/09/14 09:19:49;;;;;;;4.83;3.73;;;20.20;69.20;21.30;101500.00;;;;5009433;28;20225;-46
2023/09/14 09:22:15;;;;;;;5.50;4.10;;;20.20;69.60;21.30;101508.00;;;;5009785;28;20196;-46
2023/09/14 09:24:41;;;;;;;3.50;3.20;;;20.30;69.70;21.30;101500.00;;;;5008459;28;20186;-45
2023/09/14 09:27:26;;;;;;;4.70;3.40;;;20.50;68.40;21.40;101494.00;;;;5009323;28;20648;-46
2023/09/14 09:29:56;;;;;;;4.43;3.70;;;20.60;68.30;21.40;101501.00;;;;5009497;28;20191;-47
2023/09/14 09:32:22;;;;;;;5.57;4.33;;;20.60;68.80;21.40;101504.00;;;;5008384;28;20180;-46
2023/09/14 09:34:48;;;;;;;5.73;4.90;;;20.50;68.90;21.40;101507.00;;;;5009159;28;20176;-46
2023/09/14 09:37:13;;;;;;;8.10;5.53;;;20.20;69.70;21.30;101494.00;;;;5009325;28;20206;-46
2023/09/14 09:39:40;;;;;;;5.47;4.77;;;20.10;70.70;21.30;101503.00;;;;5008227;28;20677;-46
2023/09/14 09:42:08;;;;;;;4.80;3.63;;;20.20;70.40;21.30;101504.00;;;;5007908;28;20178;-46
2023/09/14 09:44:34;;;;;;;5.23;4.47;;;20.40;70.10;21.30;101501.00;;;;4996256;28;20179;-46
2023/09/14 09:47:00;;;;;;;4.20;3.80;;;20.50;70.00;21.30;101510.00;;;;5012062;28;20228;-46
2023/09/14 09:49:28;;;;;;;3.93;3.60;;;20.40;70.40;21.40;101503.00;;;;5012256;28;20199;-47
2023/09/14 09:51:54;;;;;;;5.00;3.90;;;20.60;69.30;21.40;101491.00;;;;5010769;28;20569;-47
2023/09/14 09:54:21;;;;;;;3.70;3.40;;;20.70;68.70;21.40;101466.00;;;;4996012;28;20186;-47
2023/09/14 09:56:47;;;;;;;4.83;4.33;;;20.70;69.00;21.40;101493.00;;;;5011746;28;20198;-45
2023/09/14 09:59:15;;;;;;;4.97;4.50;;;20.70;69.00;21.50;101488.00;;;;5012148;28;20262;-48
2023/09/14 10:01:45;;;;;;;5.13;4.60;;;20.70;69.40;21.50;101418.00;;;;5013548;28;20193;-46
2023/09/14 10:04:11;;;;;;;4.80;4.20;;;20.60;69.30;21.50;101487.00;;;;5012301;28;20286;-47
2023/09/14 10:06:38;;;;;;;4.30;3.70;;;20.60;69.40;21.50;101488.00;;;;5013102;28;20211;-46
2023/09/14 10:09:13;;;;;;;4.63;4.23;;;20.60;69.20;21.50;101484.00;;;;4995534;28;20281;-46
2023/09/14 10:11:39;;;;;;;4.23;3.83;;;20.60;69.40;21.50;101483.00;;;;5015790;28;20183;-46
2023/09/14 10:14:05;;;;;;;4.57;4.17;;;20.60;68.40;21.50;101477.00;;;;5029750;28;20202;-46
2023/09/14 10:16:41;;;;;;;3.70;3.40;;;20.60;68.80;21.50;101482.00;;;;5013435;28;20186;-45
2023/09/14 10:19:08;;;;;;;5.27;4.50;;;20.70;68.80;21.50;101481.00;;;;5013049;28;20363;-46
2023/09/14 10:21:34;;;;;;;6.80;4.80;;;20.60;68.50;21.50;101492.00;;;;5012990;28;20179;-45
2023/09/14 10:24:00;;;;;;;5.77;5.27;;;20.60;68.80;21.50;101486.00;;;;4995707;28;20178;-46
2023/09/14 10:26:27;;;;;;;4.63;4.17;;;20.50;68.00;21.50;101481.00;;;;4985557;28;20217;-46
2023/09/14 10:28:54;;;;;;;4.50;3.80;;;20.50;68.60;21.50;101468.00;;;;5009541;28;20662;-45
2023/09/14 10:31:20;;;;;;;4.30;3.80;;;20.60;68.60;21.50;101467.00;;;;5013038;28;20234;-45
2023/09/14 10:33:45;;;;;;;4.73;4.30;;;20.70;68.50;21.60;101475.00;;;;5013162;28;20178;-45
2023/09/14 10:36:12;;;;;;;5.27;4.77;;;20.70;68.40;21.60;101469.00;;;;5011522;28;20661;-45
2023/09/14 10:38:42;;;;;;;5.57;4.30;;;20.70;67.80;21.60;101458.00;;;;5012106;28;20210;-46
2023/09/14 10:41:09;;;;;;;4.47;4.00;;;20.70;66.80;21.60;101468.00;;;;4995823;28;20196;-47
2023/09/14 10:43:34;;;;;;;3.90;3.50;;;20.70;67.50;21.60;101464.00;;;;5012596;28;20262;-46
2023/09/14 10:46:01;;;;;;;3.70;3.40;;;20.70;64.60;21.60;101470.00;;;;5012467;28;20626;-47